createdAt,value
2018-12-15T00:00:06.222Z,11.00
2018-12-15T00:01:08.684Z,9.80
2018-12-15T00:02:11.188Z,10.33
2018-12-15T00:03:13.674Z,9.77
2018-12-15T00:04:16.210Z,9.80
2018-12-15T00:05:18.848Z,10.83
2018-12-15T00:06:21.345Z,9.63
2018-12-15T00:07:23.813Z,10.87
2018-12-15T00:08:26.271Z,9.43
2018-12-15T00:09:28.749Z,9.53
2018-12-15T00:10:31.222Z,10.23
2018-12-15T00:11:33.699Z,10.50
2018-12-15T00:12:36.269Z,10.60
2018-12-15T00:13:38.822Z,10.13
2018-12-15T00:14:41.371Z,10.27
2018-12-15T00:15:43.918Z,10.07
2018-12-15T00:16:46.414Z,10.47
2018-12-15T00:17:49.362Z,9.70
2018-12-15T00:18:51.860Z,9.70
2018-12-15T00:19:54.362Z,9.70
2018-12-15T00:20:56.906Z,9.63
2018-12-15T00:21:59.375Z,10.40
2018-12-15T00:23:01.858Z,9.57
2018-12-15T00:24:04.324Z,9.47
2018-12-15T00:25:06.827Z,10.00
2018-12-15T00:26:09.306Z,9.70
2018-12-15T00:27:11.797Z,9.73
2018-12-15T00:28:14.278Z,10.37
2018-12-15T00:29:16.786Z,9.80
2018-12-15T00:30:19.287Z,9.43
2018-12-15T00:31:22.042Z,9.57
2018-12-15T00:32:24.544Z,9.13
2018-12-15T00:33:27.013Z,9.20
2018-12-15T00:34:29.472Z,9.47
2018-12-15T00:35:31.956Z,9.40
2018-12-15T00:36:34.424Z,9.50
2018-12-15T00:37:37.039Z,8.70
2018-12-15T00:38:39.519Z,9.07
2018-12-15T00:39:42.000Z,9.33
2018-12-15T00:40:44.506Z,9.53
2018-12-15T00:41:46.984Z,8.53
2018-12-15T00:42:49.445Z,8.13
2018-12-15T00:43:51.942Z,9.27
2018-12-15T00:44:54.407Z,8.97
2018-12-15T00:45:56.889Z,8.77
2018-12-15T00:46:59.369Z,8.20
2018-12-15T00:48:01.869Z,8.33
2018-12-15T00:49:04.350Z,8.90
2018-12-15T00:50:06.907Z,8.50
2018-12-15T00:51:09.484Z,8.40
2018-12-15T00:52:11.979Z,8.77
2018-12-15T00:53:14.450Z,8.50
2018-12-15T00:54:16.930Z,7.73
2018-12-15T00:55:19.406Z,8.27
2018-12-15T00:56:21.957Z,8.70
2018-12-15T00:57:24.488Z,8.47
2018-12-15T00:58:27.044Z,7.97
2018-12-15T00:59:29.525Z,8.33
2018-12-15T01:00:32.061Z,8.23
2018-12-15T01:01:34.566Z,8.77
2018-12-15T01:02:37.032Z,8.70
2018-12-15T01:03:39.493Z,8.23
2018-12-15T01:04:41.961Z,7.83
2018-12-15T01:05:44.455Z,8.40
2018-12-15T01:06:46.958Z,9.40
2018-12-15T01:07:49.437Z,8.40
2018-12-15T01:08:51.900Z,8.63
2018-12-15T01:09:54.356Z,8.50
2018-12-15T01:10:56.845Z,8.00
2018-12-15T01:11:59.358Z,8.03
2018-12-15T01:13:01.821Z,8.03
2018-12-15T01:14:04.299Z,7.30
2018-12-15T01:15:06.777Z,7.60
2018-12-15T01:16:09.258Z,7.40
2018-12-15T01:17:11.773Z,8.07
2018-12-15T01:18:14.330Z,7.63
2018-12-15T01:19:16.810Z,8.67
2018-12-15T01:20:19.282Z,7.97
2018-12-15T01:21:21.762Z,7.77
2018-12-15T01:22:24.259Z,7.43
2018-12-15T01:23:26.753Z,8.50
2018-12-15T01:24:29.244Z,7.90
2018-12-15T01:25:31.722Z,8.03
2018-12-15T01:26:34.203Z,8.10
2018-12-15T01:27:36.694Z,7.40
2018-12-15T01:28:39.185Z,8.10
2018-12-15T01:29:41.652Z,7.43
2018-12-15T01:30:44.131Z,7.40
2018-12-15T01:31:46.606Z,6.87
2018-12-15T01:32:49.106Z,8.87
2018-12-15T01:33:51.612Z,7.63
2018-12-15T01:34:54.105Z,7.03
2018-12-15T01:35:56.620Z,7.87
2018-12-15T01:36:59.078Z,7.47
2018-12-15T01:38:01.564Z,6.67
2018-12-15T01:39:06.208Z,7.30
2018-12-15T01:40:08.816Z,7.50
2018-12-15T01:41:11.298Z,7.77
2018-12-15T01:42:13.774Z,7.07
2018-12-15T01:43:16.285Z,8.27
2018-12-15T01:44:18.798Z,7.80
2018-12-15T01:45:21.293Z,7.37
2018-12-15T01:46:23.773Z,7.47
2018-12-15T01:47:27.038Z,7.40
2018-12-15T01:48:29.785Z,7.90
2018-12-15T01:49:32.258Z,6.90
2018-12-15T01:50:34.740Z,6.80
2018-12-15T01:51:37.312Z,7.40
2018-12-15T01:52:39.767Z,7.20
2018-12-15T01:53:42.262Z,6.50
2018-12-15T01:54:44.749Z,7.10
2018-12-15T01:55:47.236Z,6.50
2018-12-15T01:56:49.719Z,6.93
2018-12-15T01:57:52.210Z,7.93
2018-12-15T01:58:54.702Z,6.53
2018-12-15T01:59:57.399Z,7.20
2018-12-15T02:00:59.867Z,7.13
2018-12-15T02:02:02.362Z,7.03
2018-12-15T02:03:04.913Z,7.00
2018-12-15T02:04:07.392Z,6.97
2018-12-15T02:05:09.885Z,6.90
2018-12-15T02:06:12.352Z,7.20
2018-12-15T02:07:14.837Z,6.57
2018-12-15T02:08:17.311Z,7.37
2018-12-15T02:09:19.860Z,6.70
2018-12-15T02:10:22.370Z,7.10
2018-12-15T02:11:24.861Z,6.90
2018-12-15T02:12:27.342Z,6.67
2018-12-15T02:13:30.352Z,6.20
2018-12-15T02:14:32.861Z,6.77
2018-12-15T02:15:35.365Z,7.33
2018-12-15T02:16:37.846Z,6.77
2018-12-15T02:17:40.333Z,6.87
2018-12-15T02:18:42.808Z,7.40
2018-12-15T02:19:45.351Z,7.27
2018-12-15T02:20:47.830Z,6.47
2018-12-15T02:21:50.322Z,6.20
2018-12-15T02:22:52.799Z,6.00
2018-12-15T02:23:55.282Z,6.67
2018-12-15T02:24:57.769Z,6.13
2018-12-15T02:26:00.246Z,6.60
2018-12-15T02:27:02.712Z,7.50
2018-12-15T02:28:05.205Z,6.37
2018-12-15T02:29:07.688Z,6.20
2018-12-15T02:30:10.267Z,6.67
2018-12-15T02:31:12.764Z,6.67
2018-12-15T02:32:15.262Z,7.07
2018-12-15T02:33:17.787Z,7.17
2018-12-15T02:34:20.280Z,6.20
2018-12-15T02:35:22.802Z,5.93
2018-12-15T02:36:25.293Z,7.00
2018-12-15T02:37:29.769Z,6.87
2018-12-15T02:38:32.230Z,6.30
2018-12-15T02:39:34.802Z,6.73
2018-12-15T02:40:37.302Z,5.93
2018-12-15T02:41:47.049Z,6.50
2018-12-15T02:42:44.357Z,6.67
2018-12-15T02:43:46.838Z,6.93
2018-12-15T02:44:49.334Z,6.20
2018-12-15T02:45:51.830Z,6.53
2018-12-15T02:46:54.317Z,6.57
2018-12-15T02:47:56.793Z,5.57
2018-12-15T02:48:59.252Z,6.37
2018-12-15T02:50:01.727Z,6.67
2018-12-15T02:51:04.216Z,6.23
2018-12-15T02:52:06.695Z,5.57
2018-12-15T02:53:09.180Z,5.67
2018-12-15T02:54:11.636Z,5.93
2018-12-15T02:55:14.129Z,5.37
2018-12-15T02:56:16.608Z,5.60
2018-12-15T02:57:19.099Z,6.50
2018-12-15T02:58:21.582Z,5.60
2018-12-15T02:59:24.180Z,6.50
2018-12-15T03:00:26.729Z,6.33
2018-12-15T03:01:29.212Z,5.40
2018-12-15T03:02:31.696Z,6.30
2018-12-15T03:03:34.152Z,6.30
2018-12-15T03:04:36.640Z,6.10
2018-12-15T03:05:39.141Z,5.67
2018-12-15T03:06:41.631Z,5.90
2018-12-15T03:07:44.109Z,6.00
2018-12-15T03:08:46.591Z,5.57
2018-12-15T03:09:49.063Z,5.90
2018-12-15T03:10:51.601Z,6.60
2018-12-15T03:11:54.098Z,5.90
2018-12-15T03:12:56.654Z,5.70
2018-12-15T03:13:59.173Z,5.53
2018-12-15T03:15:01.652Z,6.67
2018-12-15T03:16:04.221Z,5.40
2018-12-15T03:17:06.861Z,5.40
2018-12-15T03:18:09.323Z,5.50
2018-12-15T03:19:11.866Z,5.83
2018-12-15T03:20:14.396Z,5.57
2018-12-15T03:21:16.860Z,5.70
2018-12-15T03:22:19.423Z,5.83
2018-12-15T03:23:21.908Z,5.13
2018-12-15T03:24:24.393Z,6.07
2018-12-15T03:25:26.885Z,5.60
2018-12-15T03:26:29.482Z,5.40
2018-12-15T03:27:31.981Z,5.13
2018-12-15T03:28:34.446Z,5.40
2018-12-15T03:29:36.936Z,5.33
2018-12-15T03:30:39.597Z,5.00
2018-12-15T03:31:42.095Z,4.70
2018-12-15T03:32:44.614Z,5.70
2018-12-15T03:33:47.100Z,5.07
2018-12-15T03:34:49.563Z,4.80
2018-12-15T03:35:52.024Z,5.23
2018-12-15T03:36:54.498Z,5.60
2018-12-15T03:37:56.981Z,4.60
2018-12-15T03:38:59.486Z,5.47
2018-12-15T03:40:01.945Z,5.50
2018-12-15T03:41:04.422Z,5.70
2018-12-15T03:42:06.917Z,5.60
2018-12-15T03:43:09.418Z,5.80
2018-12-15T03:44:11.883Z,4.73
2018-12-15T03:45:14.347Z,5.07
2018-12-15T03:46:16.801Z,4.90
2018-12-15T03:47:19.276Z,5.83
2018-12-15T03:48:21.767Z,5.67
2018-12-15T03:49:24.244Z,4.77
2018-12-15T03:50:26.719Z,5.33
2018-12-15T03:51:29.187Z,4.80
2018-12-15T03:52:31.716Z,5.30
2018-12-15T03:53:34.197Z,5.30
2018-12-15T03:54:36.674Z,5.37
2018-12-15T03:55:39.204Z,5.00
2018-12-15T03:56:41.678Z,5.07
2018-12-15T03:57:44.170Z,5.60
2018-12-15T03:58:46.666Z,5.20
2018-12-15T03:59:49.279Z,4.60
2018-12-15T04:00:51.755Z,4.93
2018-12-15T04:01:54.253Z,4.93
2018-12-15T04:02:56.718Z,5.20
2018-12-15T04:03:59.233Z,4.63
2018-12-15T04:05:01.707Z,4.93
2018-12-15T04:06:04.197Z,4.53
2018-12-15T04:07:06.694Z,4.93
2018-12-15T04:08:09.176Z,4.17
2018-12-15T04:09:11.671Z,4.80
2018-12-15T04:10:14.170Z,4.90
2018-12-15T04:11:16.646Z,4.40
2018-12-15T04:12:19.150Z,4.50
2018-12-15T04:13:21.623Z,5.03
2018-12-15T04:14:24.104Z,5.00
2018-12-15T04:15:26.588Z,4.83
2018-12-15T04:16:29.164Z,4.83
2018-12-15T04:17:31.662Z,4.63
2018-12-15T04:18:34.131Z,5.00
2018-12-15T04:19:36.608Z,4.73
2018-12-15T04:20:39.116Z,4.67
2018-12-15T04:21:41.649Z,4.97
2018-12-15T04:22:44.128Z,4.80
2018-12-15T04:23:47.399Z,4.83
2018-12-15T04:24:50.087Z,4.70
2018-12-15T04:25:52.585Z,4.83
2018-12-15T04:26:55.067Z,4.80
2018-12-15T04:27:57.524Z,4.67
2018-12-15T04:29:00.015Z,4.53
2018-12-15T04:30:02.835Z,5.27
2018-12-15T04:31:05.318Z,4.57
2018-12-15T04:32:07.863Z,4.70
2018-12-15T04:33:10.342Z,4.70
2018-12-15T04:34:12.815Z,5.53
2018-12-15T04:35:15.329Z,4.53
2018-12-15T04:36:18.655Z,4.70
2018-12-15T04:37:21.116Z,5.10
2018-12-15T04:38:23.598Z,6.00
2018-12-15T04:39:26.081Z,5.13
2018-12-15T04:40:28.752Z,5.77
2018-12-15T04:41:31.249Z,6.27
2018-12-15T04:42:33.740Z,5.93
2018-12-15T04:43:36.222Z,5.23
2018-12-15T04:44:38.702Z,6.00
2018-12-15T04:45:41.200Z,6.63
2018-12-15T04:46:43.678Z,5.70
2018-12-15T04:47:46.173Z,5.57
2018-12-15T04:48:48.764Z,6.37
2018-12-15T04:49:51.241Z,7.40
2018-12-15T04:50:53.738Z,5.80
2018-12-15T04:51:56.218Z,6.57
2018-12-15T04:52:58.686Z,5.10
2018-12-15T04:54:01.159Z,6.00
2018-12-15T04:55:04.092Z,6.43
2018-12-15T04:56:06.598Z,5.53
2018-12-15T04:57:09.083Z,5.63
2018-12-15T04:58:11.566Z,6.37
2018-12-15T04:59:14.058Z,5.73
2018-12-15T05:00:16.526Z,5.17
2018-12-15T05:01:19.016Z,5.90
2018-12-15T05:02:21.502Z,6.03
2018-12-15T05:03:23.979Z,5.33
2018-12-15T05:04:26.469Z,5.63
2018-12-15T05:05:28.946Z,5.30
2018-12-15T05:06:31.467Z,6.23
2018-12-15T05:07:33.973Z,5.77
2018-12-15T05:08:36.473Z,4.93
2018-12-15T05:09:38.959Z,5.60
2018-12-15T05:10:41.420Z,6.33
2018-12-15T05:11:43.919Z,6.40
2018-12-15T05:12:46.390Z,5.63
2018-12-15T05:13:48.871Z,4.50
2018-12-15T05:14:51.351Z,5.30
2018-12-15T05:15:53.845Z,5.50
2018-12-15T05:16:56.346Z,5.40
2018-12-15T05:17:58.826Z,6.47
2018-12-15T05:19:01.337Z,5.50
2018-12-15T05:20:04.477Z,5.33
2018-12-15T05:21:07.093Z,5.70
2018-12-15T05:22:09.777Z,5.00
2018-12-15T05:23:12.261Z,5.27
2018-12-15T05:24:14.724Z,5.57
2018-12-15T05:25:17.221Z,5.33
2018-12-15T05:26:19.711Z,5.37
2018-12-15T05:27:22.272Z,6.10
2018-12-15T05:28:24.750Z,4.93
2018-12-15T05:29:27.218Z,5.07
2018-12-15T05:30:29.716Z,5.27
2018-12-15T05:31:32.198Z,4.67
2018-12-15T05:32:34.681Z,4.90
2018-12-15T05:33:37.169Z,4.30
2018-12-15T05:34:39.678Z,5.10
2018-12-15T05:35:42.148Z,4.63
2018-12-15T05:36:44.641Z,4.43
2018-12-15T05:37:47.120Z,4.60
2018-12-15T05:38:49.579Z,5.07
2018-12-15T05:39:52.119Z,4.90
2018-12-15T05:40:54.594Z,4.70
2018-12-15T05:41:57.093Z,4.43
2018-12-15T05:42:59.636Z,4.80
2018-12-15T05:44:02.164Z,4.73
2018-12-15T05:45:05.571Z,4.43
2018-12-15T05:46:08.047Z,4.20
2018-12-15T05:47:10.534Z,4.30
2018-12-15T05:48:13.027Z,4.20
2018-12-15T05:49:15.514Z,5.13
2018-12-15T05:50:17.980Z,4.47
2018-12-15T05:51:20.538Z,4.33
2018-12-15T05:52:23.037Z,4.70
2018-12-15T05:53:25.549Z,4.10
2018-12-15T05:54:28.029Z,4.00
2018-12-15T05:55:30.514Z,4.00
2018-12-15T05:56:32.990Z,4.10
2018-12-15T05:57:35.483Z,4.03
2018-12-15T05:58:37.975Z,4.33
2018-12-15T05:59:40.448Z,3.90
2018-12-15T06:00:42.926Z,3.83
2018-12-15T06:01:45.400Z,3.77
2018-12-15T06:02:48.006Z,4.10
2018-12-15T06:03:50.513Z,4.60
2018-12-15T06:04:53.880Z,4.17
2018-12-15T06:05:56.359Z,4.20
2018-12-15T06:06:58.842Z,3.30
2018-12-15T06:08:01.304Z,3.90
2018-12-15T06:09:05.049Z,3.70
2018-12-15T06:10:07.616Z,3.30
2018-12-15T06:11:10.091Z,3.20
2018-12-15T06:12:12.570Z,4.10
2018-12-15T06:13:15.050Z,4.13
2018-12-15T06:14:17.550Z,4.00
2018-12-15T06:15:20.101Z,3.43
2018-12-15T06:16:22.601Z,4.37
2018-12-15T06:17:25.074Z,3.23
2018-12-15T06:18:31.655Z,3.47
2018-12-15T06:19:32.104Z,4.13
2018-12-15T06:20:34.583Z,3.57
2018-12-15T06:21:37.064Z,3.20
2018-12-15T06:22:39.556Z,3.30
2018-12-15T06:23:42.035Z,3.10
2018-12-15T06:24:44.515Z,3.30
2018-12-15T06:25:47.062Z,2.80
2018-12-15T06:26:49.538Z,3.77
2018-12-15T06:27:51.996Z,3.10
2018-12-15T06:28:54.512Z,3.30
2018-12-15T06:29:57.113Z,3.57
2018-12-15T06:30:59.594Z,2.87
2018-12-15T06:32:02.098Z,2.93
2018-12-15T06:33:04.590Z,2.40
2018-12-15T06:34:07.178Z,3.50
2018-12-15T06:35:09.654Z,3.13
2018-12-15T06:36:12.125Z,3.20
2018-12-15T06:37:14.599Z,3.20
2018-12-15T06:38:17.083Z,3.57
2018-12-15T06:39:19.574Z,3.33
2018-12-15T06:40:22.032Z,3.10
2018-12-15T06:41:24.504Z,3.00
2018-12-15T06:42:26.965Z,3.03
2018-12-15T06:43:29.703Z,3.07
2018-12-15T06:44:32.195Z,2.70
2018-12-15T06:45:34.670Z,3.27
2018-12-15T06:46:37.206Z,3.00
2018-12-15T06:47:39.681Z,2.60
2018-12-15T06:48:42.159Z,3.47
2018-12-15T06:49:44.734Z,3.30
2018-12-15T06:50:47.207Z,3.10
2018-12-15T06:51:49.690Z,3.13
2018-12-15T06:52:52.177Z,3.03
2018-12-15T06:53:54.736Z,3.03
2018-12-15T06:54:57.235Z,3.00
2018-12-15T06:55:59.852Z,3.30
2018-12-15T06:57:02.324Z,3.23
2018-12-15T06:58:04.842Z,3.23
2018-12-15T06:59:07.328Z,2.73
2018-12-15T07:00:09.944Z,2.53
2018-12-15T07:01:12.478Z,2.63
2018-12-15T07:02:14.970Z,2.77
2018-12-15T07:03:17.458Z,2.80
2018-12-15T07:04:19.969Z,2.93
2018-12-15T07:05:22.538Z,3.13
2018-12-15T07:06:25.042Z,2.93
2018-12-15T07:07:27.522Z,3.00
2018-12-15T07:08:30.013Z,2.47
2018-12-15T07:09:32.502Z,3.30
2018-12-15T07:10:35.024Z,3.00
2018-12-15T07:11:37.524Z,2.90
2018-12-15T07:12:40.108Z,3.85
2018-12-15T07:13:42.594Z,4.57
2018-12-15T07:14:45.083Z,4.50
2018-12-15T07:15:47.614Z,5.30
2018-12-15T07:16:50.110Z,5.60
2018-12-15T07:17:52.614Z,6.80
2018-12-15T07:18:55.126Z,6.83
2018-12-15T07:19:57.664Z,7.70
2018-12-15T07:21:00.241Z,8.10
2018-12-15T07:22:02.730Z,7.87
2018-12-15T07:23:05.206Z,8.53
2018-12-15T07:24:07.702Z,8.87
2018-12-15T07:25:11.352Z,9.20
2018-12-15T07:26:13.854Z,8.50
2018-12-15T07:27:16.349Z,9.50
2018-12-15T07:28:18.836Z,9.17
2018-12-15T07:29:21.299Z,8.60
2018-12-15T07:30:23.800Z,9.10
2018-12-15T07:31:26.304Z,8.70
2018-12-15T07:32:28.801Z,8.93
2018-12-15T07:33:31.301Z,9.30
2018-12-15T07:34:33.778Z,8.73
2018-12-15T07:35:36.347Z,10.37
2018-12-15T07:36:39.022Z,10.23
2018-12-15T07:38:19.534Z,10.70
2018-12-15T07:39:22.004Z,10.77
2018-12-15T07:40:24.514Z,11.47
2018-12-15T07:41:26.978Z,11.50
2018-12-15T07:42:29.477Z,11.50
2018-12-15T07:43:31.973Z,12.10
2018-12-15T07:44:34.455Z,12.40
2018-12-15T07:45:37.024Z,11.33
2018-12-15T07:46:44.647Z,12.40
2018-12-15T07:47:47.162Z,12.73
2018-12-15T07:48:51.522Z,12.00
2018-12-15T07:49:54.187Z,10.87
2018-12-15T07:50:56.674Z,11.93
2018-12-15T07:51:59.150Z,10.50
2018-12-15T07:53:01.754Z,11.37
2018-12-15T07:54:04.224Z,11.20
2018-12-15T07:55:06.772Z,10.70
2018-12-15T07:56:09.250Z,10.20
2018-12-15T07:57:11.738Z,10.73
2018-12-15T07:58:14.261Z,10.43
2018-12-15T07:59:16.733Z,11.80
2018-12-15T08:00:19.341Z,11.87
2018-12-15T08:01:21.842Z,11.10
2018-12-15T08:02:24.338Z,12.33
2018-12-15T08:03:26.847Z,10.20
2018-12-15T08:04:29.308Z,10.77
2018-12-15T08:05:31.844Z,10.97
2018-12-15T08:06:34.347Z,10.87
2018-12-15T08:07:36.920Z,10.27
2018-12-15T08:08:39.426Z,11.00
2018-12-15T08:09:41.981Z,10.97
2018-12-15T08:10:50.046Z,10.60
2018-12-15T08:11:58.261Z,10.90
2018-12-15T08:13:02.718Z,10.70
2018-12-15T08:14:07.198Z,10.73
2018-12-15T08:15:09.865Z,10.13
2018-12-15T08:16:12.366Z,10.80
2018-12-15T08:17:14.859Z,11.50
2018-12-15T08:18:17.324Z,10.53
2018-12-15T08:19:19.830Z,11.63
2018-12-15T08:20:22.728Z,9.60
2018-12-15T08:21:25.322Z,10.70
2018-12-15T08:22:27.788Z,10.03
2018-12-15T08:23:30.278Z,10.30
2018-12-15T08:24:32.883Z,10.97
2018-12-15T08:25:35.372Z,9.43
2018-12-15T08:26:37.952Z,10.20
2018-12-15T08:27:40.426Z,10.20
2018-12-15T08:28:42.967Z,9.83
2018-12-15T08:29:45.460Z,9.83
2018-12-15T08:30:48.036Z,9.83
2018-12-15T08:31:52.119Z,10.20
2018-12-15T08:32:54.654Z,8.57
2018-12-15T08:33:57.135Z,9.40
2018-12-15T08:34:59.650Z,9.57
2018-12-15T08:36:02.149Z,9.03
2018-12-15T08:37:04.639Z,8.80
2018-12-15T08:38:07.103Z,8.87
2018-12-15T08:39:09.592Z,8.23
2018-12-15T08:40:12.344Z,9.57
2018-12-15T08:41:14.804Z,9.00
2018-12-15T08:42:17.366Z,8.30
2018-12-15T08:43:19.864Z,8.07
2018-12-15T08:44:22.363Z,8.50
2018-12-15T08:45:24.949Z,8.20
2018-12-15T08:46:27.436Z,7.70
2018-12-15T08:47:29.920Z,7.87
2018-12-15T08:48:32.397Z,8.80
2018-12-15T08:49:34.897Z,7.63
2018-12-15T08:50:37.586Z,7.90
2018-12-15T08:51:40.084Z,7.20
2018-12-15T08:52:42.580Z,8.33
2018-12-15T08:53:45.080Z,8.27
2018-12-15T08:54:47.554Z,8.10
2018-12-15T08:55:50.198Z,7.43
2018-12-15T08:56:52.692Z,8.30
2018-12-15T08:57:55.171Z,7.77
2018-12-15T08:58:57.633Z,7.57
2018-12-15T09:00:00.108Z,7.13
2018-12-15T09:01:02.625Z,8.10
2018-12-15T09:02:05.482Z,7.93
2018-12-15T09:03:08.904Z,7.47
2018-12-15T09:04:11.374Z,7.57
2018-12-15T09:05:13.854Z,7.33
2018-12-15T09:06:16.365Z,7.13
2018-12-15T09:07:19.053Z,8.67
2018-12-15T09:08:21.555Z,7.20
2018-12-15T09:09:24.070Z,7.57
2018-12-15T09:10:26.536Z,7.50
2018-12-15T09:11:29.042Z,7.20
2018-12-15T09:12:31.527Z,6.53
2018-12-15T09:13:34.041Z,7.03
2018-12-15T09:14:36.540Z,7.40
2018-12-15T09:15:39.008Z,6.80
2018-12-15T09:16:41.535Z,6.80
2018-12-15T09:17:44.010Z,6.97
2018-12-15T09:18:46.494Z,6.77
2018-12-15T09:19:48.980Z,6.97
2018-12-15T09:20:51.452Z,6.73
2018-12-15T09:21:54.015Z,6.53
2018-12-15T09:22:56.527Z,7.00
2018-12-15T09:23:59.017Z,6.50
2018-12-15T09:25:01.518Z,6.40
2018-12-15T09:26:04.085Z,6.00
2018-12-15T09:27:06.584Z,6.77
2018-12-15T09:28:09.084Z,6.17
2018-12-15T09:29:11.572Z,6.40
2018-12-15T09:30:14.051Z,7.40
2018-12-15T09:31:16.531Z,6.57
2018-12-15T09:32:19.040Z,6.33
2018-12-15T09:33:21.626Z,6.77
2018-12-15T09:34:24.092Z,6.40
2018-12-15T09:35:26.585Z,7.00
2018-12-15T09:36:29.052Z,5.90
2018-12-15T09:37:31.568Z,5.90
2018-12-15T09:38:34.050Z,5.87
2018-12-15T09:39:36.526Z,6.90
2018-12-15T09:40:39.592Z,7.20
2018-12-15T09:41:42.071Z,6.97
2018-12-15T09:42:44.575Z,5.70
2018-12-15T09:43:47.070Z,5.80
2018-12-15T09:44:49.568Z,6.40
2018-12-15T09:45:52.042Z,6.03
2018-12-15T09:46:54.580Z,5.93
2018-12-15T09:47:57.078Z,5.90
2018-12-15T09:48:59.558Z,6.20
2018-12-15T09:50:02.065Z,5.50
2018-12-15T09:51:04.657Z,6.57
2018-12-15T09:52:07.157Z,5.83
2018-12-15T09:53:09.744Z,6.23
2018-12-15T09:54:12.236Z,6.80
2018-12-15T09:55:14.805Z,6.50
2018-12-15T09:56:17.594Z,8.90
2018-12-15T09:57:20.102Z,8.30
2018-12-15T09:58:22.729Z,8.53
2018-12-15T09:59:25.211Z,8.30
2018-12-15T10:00:27.709Z,9.00
2018-12-15T10:01:30.295Z,8.80
2018-12-15T10:02:32.763Z,8.27
2018-12-15T10:03:35.262Z,9.27
2018-12-15T10:04:37.738Z,9.10
2018-12-15T10:05:40.253Z,9.07
2018-12-15T10:06:42.774Z,9.20
2018-12-15T10:07:45.254Z,8.93
2018-12-15T10:08:47.754Z,9.40
2018-12-15T10:09:50.250Z,8.70
2018-12-15T10:10:52.720Z,9.13
2018-12-15T10:11:55.214Z,8.40
2018-12-15T10:12:57.723Z,8.83
2018-12-15T10:14:00.241Z,8.60
2018-12-15T10:15:02.704Z,10.40
2018-12-15T10:16:05.168Z,9.80
2018-12-15T10:17:08.937Z,10.30
2018-12-15T10:18:11.923Z,10.50
2018-12-15T10:19:14.415Z,12.23
2018-12-15T10:20:16.880Z,11.30
2018-12-15T10:21:19.394Z,11.80
2018-12-15T10:22:21.886Z,12.30
2018-12-15T10:23:24.412Z,12.50
2018-12-15T10:24:26.903Z,11.90
2018-12-15T10:25:29.404Z,11.90
2018-12-15T10:26:31.919Z,14.47
2018-12-15T10:27:34.410Z,15.03
2018-12-15T10:28:37.062Z,12.30
2018-12-15T10:29:45.262Z,12.40
2018-12-15T10:30:53.429Z,11.93
2018-12-15T10:32:01.636Z,12.10
2018-12-15T10:33:04.267Z,11.23
2018-12-15T10:34:06.754Z,11.90
2018-12-15T10:35:09.255Z,12.73
2018-12-15T10:36:11.753Z,11.93
2018-12-15T10:37:14.242Z,12.17
2018-12-15T10:38:16.754Z,12.03
2018-12-15T10:39:19.254Z,11.20
2018-12-15T10:40:21.885Z,11.07
2018-12-15T10:41:24.353Z,11.23
2018-12-15T10:42:26.834Z,11.50
2018-12-15T10:43:29.320Z,10.70
2018-12-15T10:44:31.811Z,11.83
2018-12-15T10:45:35.162Z,11.20
2018-12-15T10:46:37.689Z,10.63
2018-12-15T10:47:40.197Z,10.40
2018-12-15T10:48:42.737Z,10.73
2018-12-15T10:49:45.260Z,10.80
2018-12-15T10:50:47.992Z,10.30
2018-12-15T10:51:50.487Z,10.50
2018-12-15T10:52:52.984Z,10.87
2018-12-15T10:53:55.474Z,10.43
2018-12-15T10:54:57.965Z,10.23
2018-12-15T10:56:00.450Z,10.77
2018-12-15T10:57:02.926Z,9.70
2018-12-15T10:58:05.419Z,10.87
2018-12-15T10:59:07.907Z,10.80
2018-12-15T11:00:12.650Z,10.43
2018-12-15T11:01:20.832Z,10.00
2018-12-15T11:02:23.310Z,10.20
2018-12-15T11:03:25.814Z,11.17
2018-12-15T11:04:28.294Z,10.90
2018-12-15T11:05:30.779Z,10.40
2018-12-15T11:06:33.285Z,9.57
2018-12-15T11:07:35.783Z,10.23
2018-12-15T11:08:38.248Z,9.90
2018-12-15T11:09:40.728Z,11.27
2018-12-15T11:10:43.212Z,10.00
2018-12-15T11:11:45.780Z,10.63
2018-12-15T11:12:48.271Z,9.67
2018-12-15T11:13:50.758Z,10.73
2018-12-15T11:14:53.219Z,10.50
2018-12-15T11:15:55.770Z,10.03
2018-12-15T11:16:58.266Z,10.17
2018-12-15T11:18:00.728Z,10.13
2018-12-15T11:19:03.286Z,9.30
2018-12-15T11:20:05.894Z,9.67
2018-12-15T11:21:08.379Z,9.70
2018-12-15T11:22:10.881Z,9.77
2018-12-15T11:23:13.480Z,9.47
2018-12-15T11:24:15.962Z,9.30
2018-12-15T11:25:18.491Z,9.97
2018-12-15T11:26:21.010Z,9.00
2018-12-15T11:27:23.484Z,9.90
2018-12-15T11:28:25.973Z,9.77
2018-12-15T11:29:28.466Z,9.40
2018-12-15T11:30:30.960Z,10.23
2018-12-15T11:31:33.445Z,10.13
2018-12-15T11:32:35.904Z,10.37
2018-12-15T11:33:38.428Z,9.60
2018-12-15T11:34:40.913Z,10.23
2018-12-15T11:35:43.398Z,11.33
2018-12-15T11:36:45.899Z,11.03
2018-12-15T11:37:48.380Z,11.33
2018-12-15T11:38:50.874Z,11.00
2018-12-15T11:39:53.373Z,10.97
2018-12-15T11:40:55.885Z,10.60
2018-12-15T11:41:58.462Z,10.93
2018-12-15T11:43:00.931Z,10.07
2018-12-15T11:44:03.392Z,11.20
2018-12-15T11:45:06.000Z,9.97
2018-12-15T11:46:08.503Z,10.50
2018-12-15T11:47:11.010Z,11.17
2018-12-15T11:48:13.570Z,10.50
2018-12-15T11:49:16.057Z,10.73
2018-12-15T11:50:18.607Z,9.93
2018-12-15T11:51:21.131Z,10.30
2018-12-15T11:52:23.729Z,9.97
2018-12-15T11:53:26.226Z,9.50
2018-12-15T11:54:28.717Z,9.93
2018-12-15T11:55:31.194Z,9.47
2018-12-15T11:56:33.665Z,10.03
2018-12-15T11:57:36.230Z,9.40
2018-12-15T11:58:38.704Z,9.10
2018-12-15T11:59:41.184Z,10.37
2018-12-15T12:00:43.803Z,9.93
2018-12-15T12:01:46.288Z,10.50
2018-12-15T12:02:48.941Z,9.97
2018-12-15T12:03:51.582Z,9.87
2018-12-15T12:04:54.070Z,10.80
2018-12-15T12:05:56.598Z,9.47
2018-12-15T12:06:59.101Z,10.60
2018-12-15T12:08:01.606Z,9.57
2018-12-15T12:09:05.878Z,11.20
2018-12-15T12:10:08.369Z,11.43
2018-12-15T12:11:10.960Z,9.67
2018-12-15T12:12:13.518Z,10.80
2018-12-15T12:13:16.007Z,10.27
2018-12-15T12:14:18.506Z,10.27
2018-12-15T12:15:20.997Z,11.40
2018-12-15T12:16:23.489Z,11.03
2018-12-15T12:17:26.012Z,11.10
2018-12-15T12:18:28.522Z,10.73
2018-12-15T12:19:31.022Z,12.00
2018-12-15T12:20:34.163Z,11.93
2018-12-15T12:21:36.740Z,10.67
2018-12-15T12:22:39.249Z,11.57
2018-12-15T12:23:41.762Z,11.07
2018-12-15T12:24:44.257Z,10.23
2018-12-15T12:25:46.743Z,10.83
2018-12-15T12:26:49.261Z,10.40
2018-12-15T12:27:51.764Z,10.90
2018-12-15T12:28:54.327Z,9.80
2018-12-15T12:29:56.811Z,9.17
2018-12-15T12:30:59.280Z,9.90
2018-12-15T12:32:01.774Z,9.47
2018-12-15T12:33:04.346Z,9.43
2018-12-15T12:34:06.827Z,9.77
2018-12-15T12:35:09.310Z,9.70
2018-12-15T12:36:11.830Z,9.90
2018-12-15T12:37:14.329Z,9.93
2018-12-15T12:38:16.797Z,10.50
2018-12-15T12:39:19.280Z,10.70
2018-12-15T12:40:21.874Z,10.60
2018-12-15T12:41:24.368Z,10.60
2018-12-15T12:42:26.852Z,10.60
2018-12-15T12:43:29.316Z,9.50
2018-12-15T12:44:31.833Z,10.17
2018-12-15T12:45:34.318Z,9.87
2018-12-15T12:46:36.797Z,9.23
2018-12-15T12:47:39.278Z,9.80
2018-12-15T12:48:41.755Z,9.30
2018-12-15T12:49:44.269Z,8.93
2018-12-15T12:50:46.768Z,8.47
2018-12-15T12:51:49.268Z,9.50
2018-12-15T12:52:51.844Z,10.30
2018-12-15T12:53:54.340Z,9.60
2018-12-15T12:54:56.853Z,9.13
2018-12-15T12:55:59.334Z,10.23
2018-12-15T12:57:01.801Z,9.67
2018-12-15T12:58:04.354Z,10.30
2018-12-15T12:59:06.825Z,9.73
2018-12-15T13:00:09.544Z,10.37
2018-12-15T13:01:12.022Z,9.90
2018-12-15T13:02:14.483Z,9.60
2018-12-15T13:03:16.948Z,10.20
2018-12-15T13:04:19.450Z,9.50
2018-12-15T13:05:21.941Z,9.87
2018-12-15T13:06:24.432Z,9.67
2018-12-15T13:07:26.895Z,9.77
2018-12-15T13:08:29.357Z,9.50
2018-12-15T13:09:31.839Z,10.57
2018-12-15T13:10:34.354Z,9.87
2018-12-15T13:11:36.903Z,9.60
2018-12-15T13:12:39.451Z,10.03
2018-12-15T13:13:42.041Z,9.50
2018-12-15T13:14:44.503Z,9.37
2018-12-15T13:15:46.983Z,10.50
2018-12-15T13:16:49.528Z,10.90
2018-12-15T13:17:52.007Z,9.80
2018-12-15T13:18:55.924Z,9.90
2018-12-15T13:20:03.621Z,10.10
2018-12-15T13:21:03.150Z,9.67
2018-12-15T13:22:05.635Z,9.97
2018-12-15T13:23:08.260Z,10.20
2018-12-15T13:24:10.730Z,9.20
2018-12-15T13:25:13.209Z,8.50
2018-12-15T13:26:15.725Z,10.20
2018-12-15T13:27:18.221Z,10.40
2018-12-15T13:28:22.674Z,9.50
2018-12-15T13:29:25.158Z,10.30
2018-12-15T13:30:27.788Z,9.37
2018-12-15T13:31:30.301Z,9.20
2018-12-15T13:32:32.827Z,8.90
2018-12-15T13:33:35.564Z,9.30
2018-12-15T13:34:38.149Z,9.13
2018-12-15T13:35:40.698Z,10.13
2018-12-15T13:36:43.368Z,8.70
2018-12-15T13:37:45.831Z,9.33
2018-12-15T13:38:48.385Z,9.00
2018-12-15T13:39:50.946Z,8.43
2018-12-15T13:40:53.408Z,8.60
2018-12-15T13:41:55.902Z,9.30
2018-12-15T13:42:58.392Z,9.30
2018-12-15T13:44:00.888Z,9.73
2018-12-15T13:45:03.661Z,8.23
2018-12-15T13:46:06.300Z,9.10
2018-12-15T13:47:08.881Z,9.00